Time;durP1;ratioP1;P1;durP2;ratioP2;P2;SDS_P1;SDS_P2;PMS_P1;PMS_P2;Temp;Humidity;BMP_temperature;BMP_pressure;BME280_temperature;BME280_humidity;BME280_pressure;Samples;Min_cycle;Max_cycle;Signal;HPM_P1;HPM_P2
2022/10/15 00:02:06;;;;;;;10.67;7.60;;;13.10;99.90;;;;;;5005825;28;21143;-81
2022/10/15 00:04:33;;;;;;;9.63;7.47;;;13.20;99.90;;;;;;5005041;28;20285;-78
2022/10/15 00:07:00;;;;;;;9.03;7.07;;;13.20;99.90;;;;;;5003819;28;20724;-79
2022/10/15 00:09:27;;;;;;;8.77;7.33;;;13.20;99.90;;;;;;5004117;28;20223;-79
2022/10/15 00:11:53;;;;;;;9.17;7.40;;;13.20;99.90;;;;;;5005794;28;20742;-80
2022/10/15 00:14:21;;;;;;;11.70;7.07;;;13.20;99.90;;;;;;5001498;28;20236;-79
2022/10/15 00:16:48;;;;;;;9.47;8.10;;;13.20;99.90;;;;;;5000914;28;20211;-79
2022/10/15 00:19:15;;;;;;;9.73;7.97;;;13.20;99.90;;;;;;5006693;28;20229;-78
2022/10/15 00:21:42;;;;;;;11.40;8.30;;;13.30;99.90;;;;;;5005116;28;20225;-79
2022/10/15 00:24:09;;;;;;;9.90;8.30;;;13.30;99.90;;;;;;5004700;28;20215;-79
2022/10/15 00:26:35;;;;;;;10.83;8.83;;;13.30;99.90;;;;;;5002888;28;20231;-79
2022/10/15 00:29:04;;;;;;;12.57;9.23;;;13.30;99.90;;;;;;5002936;28;20274;-78
2022/10/15 00:31:32;;;;;;;13.13;9.03;;;13.30;99.90;;;;;;5007261;28;20318;-79
2022/10/15 00:34:01;;;;;;;11.70;9.70;;;13.30;99.90;;;;;;5003434;28;20224;-79
2022/10/15 00:36:32;;;;;;;11.47;9.60;;;13.30;99.90;;;;;;4997725;28;20293;-79
2022/10/15 00:38:59;;;;;;;15.83;10.33;;;13.20;99.90;;;;;;5004930;28;20255;-79
2022/10/15 00:41:29;;;;;;;11.60;9.53;;;13.30;99.90;;;;;;5018462;28;20311;-78
2022/10/15 00:43:58;;;;;;;15.10;10.57;;;13.30;99.90;;;;;;5019503;28;20225;-78
2022/10/15 00:46:29;;;;;;;12.03;10.67;;;13.20;99.90;;;;;;4999643;28;21136;-78
2022/10/15 00:49:01;;;;;;;14.97;10.23;;;13.20;99.90;;;;;;5020150;28;20595;-78
2022/10/15 00:51:32;;;;;;;13.67;10.57;;;13.20;99.90;;;;;;5000761;28;20231;-78
2022/10/15 00:54:00;;;;;;;13.43;10.67;;;13.20;99.90;;;;;;4998045;28;22185;-78
2022/10/15 00:56:30;;;;;;;14.83;10.90;;;13.20;99.90;;;;;;4999186;28;20350;-77
2022/10/15 00:58:57;;;;;;;16.03;12.27;;;13.20;99.90;;;;;;5022768;28;20231;-79
2022/10/15 01:01:25;;;;;;;14.73;11.70;;;13.20;99.90;;;;;;5001036;28;20994;-78
2022/10/15 01:03:52;;;;;;;14.67;11.43;;;13.20;99.90;;;;;;5019341;28;20687;-79
2022/10/15 01:06:20;;;;;;;13.70;10.97;;;13.20;99.90;;;;;;5007142;28;20220;-78
2022/10/15 01:08:47;;;;;;;15.43;12.10;;;13.20;99.90;;;;;;5004918;28;20966;-78
2022/10/15 01:11:30;;;;;;;15.23;11.97;;;13.20;99.90;;;;;;5003035;28;20236;-78
2022/10/15 01:14:05;;;;;;;13.97;12.10;;;13.20;99.90;;;;;;5000304;28;20243;-77
2022/10/15 01:16:44;;;;;;;17.57;13.00;;;13.20;99.90;;;;;;5014766;28;20233;-77
2022/10/15 01:19:27;;;;;;;16.37;12.53;;;13.30;99.90;;;;;;4998049;28;20815;-78
2022/10/15 01:22:03;;;;;;;17.07;12.87;;;13.30;99.90;;;;;;5008672;28;20262;-78
2022/10/15 01:24:52;;;;;;;16.20;12.87;;;13.30;99.90;;;;;;5003610;28;20232;-78
2022/10/15 01:27:32;;;;;;;17.20;13.13;;;13.30;99.90;;;;;;4997110;28;20326;-78
2022/10/15 01:30:14;;;;;;;15.30;12.27;;;13.30;99.90;;;;;;5001205;28;20231;-77
2022/10/15 01:32:48;;;;;;;16.03;12.53;;;13.30;99.90;;;;;;5013462;28;20273;-78
2022/10/15 01:35:27;;;;;;;16.90;12.87;;;13.30;99.90;;;;;;4995197;28;20877;-78
2022/10/15 01:37:59;;;;;;;17.93;13.73;;;13.30;99.90;;;;;;4996935;28;20220;-78
2022/10/15 01:40:31;;;;;;;20.70;14.23;;;13.30;99.90;;;;;;4997673;28;20239;-78
2022/10/15 01:43:00;;;;;;;20.40;14.80;;;13.30;99.90;;;;;;4996398;28;20229;-78
2022/10/15 01:45:43;;;;;;;19.17;15.67;;;13.30;99.90;;;;;;4997294;28;20333;-77
2022/10/15 01:48:22;;;;;;;19.03;15.40;;;13.30;99.90;;;;;;5001134;28;20695;-77
2022/10/15 01:50:53;;;;;;;21.77;16.67;;;13.40;99.90;;;;;;4998542;28;20662;-78
2022/10/15 01:53:25;;;;;;;22.77;17.47;;;13.40;99.90;;;;;;4997959;28;20219;-79
2022/10/15 01:55:55;;;;;;;20.63;16.47;;;13.30;99.90;;;;;;4998097;28;20293;-78
2022/10/15 01:58:24;;;;;;;22.43;17.87;;;13.30;99.90;;;;;;5002046;28;20810;-78
2022/10/15 02:00:54;;;;;;;21.53;17.30;;;13.30;99.90;;;;;;5001846;28;20753;-78
2022/10/15 02:03:21;;;;;;;22.33;17.73;;;13.40;99.90;;;;;;4996396;28;20275;-78
2022/10/15 02:05:52;;;;;;;23.40;18.00;;;13.40;99.90;;;;;;5000881;28;20229;-78
2022/10/15 02:08:26;;;;;;;21.70;18.07;;;13.30;99.90;;;;;;5002646;28;20320;-79
2022/10/15 02:10:58;;;;;;;21.03;17.47;;;13.30;99.90;;;;;;5007988;28;20643;-79
2022/10/15 02:13:36;;;;;;;22.53;17.93;;;13.30;99.90;;;;;;5013272;28;20224;-77
2022/10/15 02:16:12;;;;;;;22.93;18.17;;;13.30;99.90;;;;;;4994397;28;20306;-77
2022/10/15 02:18:43;;;;;;;23.50;18.30;;;13.30;99.90;;;;;;5003924;28;20301;-78
2022/10/15 02:21:14;;;;;;;23.27;17.83;;;13.30;99.90;;;;;;5005427;28;20615;-78
2022/10/15 02:23:47;;;;;;;24.37;18.13;;;13.20;99.90;;;;;;5003536;28;20310;-78
2022/10/15 02:26:15;;;;;;;21.77;17.53;;;13.20;99.90;;;;;;5005233;28;20219;-79
2022/10/15 02:28:47;;;;;;;20.93;17.20;;;13.20;99.90;;;;;;4999061;28;20344;-78
2022/10/15 02:31:18;;;;;;;25.43;18.87;;;13.10;99.90;;;;;;4999665;28;20256;-78
2022/10/15 02:33:45;;;;;;;25.13;19.03;;;13.10;99.90;;;;;;4998985;28;20243;-78
2022/10/15 02:36:14;;;;;;;24.03;18.50;;;13.10;99.90;;;;;;5000161;28;20230;-78
2022/10/15 02:38:43;;;;;;;24.67;18.20;;;13.00;99.90;;;;;;5003285;28;20903;-78
2022/10/15 02:41:10;;;;;;;23.27;18.20;;;13.00;99.90;;;;;;5004591;28;20277;-78
2022/10/15 02:43:38;;;;;;;26.83;19.00;;;12.90;99.90;;;;;;5000347;28;20231;-77
2022/10/15 02:46:06;;;;;;;24.00;18.60;;;12.90;99.90;;;;;;5002793;28;20230;-79
2022/10/15 02:48:34;;;;;;;26.10;19.27;;;12.90;99.90;;;;;;5006296;28;20313;-78
2022/10/15 02:51:01;;;;;;;25.73;20.23;;;12.90;99.90;;;;;;5002571;28;20235;-78
2022/10/15 02:53:31;;;;;;;26.30;19.37;;;12.90;99.90;;;;;;4998767;28;20942;-78
2022/10/15 02:55:58;;;;;;;27.13;19.47;;;12.80;99.90;;;;;;5001912;28;20250;-78
2022/10/15 02:58:25;;;;;;;26.23;20.13;;;12.80;99.90;;;;;;5000663;28;20250;-78
2022/10/15 03:00:52;;;;;;;27.23;19.57;;;12.80;99.90;;;;;;5002015;28;20222;-78
2022/10/15 03:03:19;;;;;;;26.77;20.63;;;12.80;99.90;;;;;;4997019;28;20895;-77
2022/10/15 03:05:47;;;;;;;28.57;20.50;;;12.80;99.90;;;;;;5000396;28;20232;-78
2022/10/15 03:08:14;;;;;;;27.07;19.93;;;12.80;99.90;;;;;;4997481;28;20284;-78
2022/10/15 03:10:41;;;;;;;27.43;19.37;;;12.80;99.90;;;;;;4999932;28;20227;-78
2022/10/15 03:13:08;;;;;;;26.73;20.13;;;12.80;99.90;;;;;;4998431;28;20263;-79
2022/10/15 03:15:42;;;;;;;27.63;20.43;;;12.80;99.90;;;;;;5014306;28;20268;-79
2022/10/15 03:18:09;;;;;;;28.70;19.70;;;12.80;99.90;;;;;;5011658;28;20283;-78
2022/10/15 03:20:36;;;;;;;26.80;20.23;;;12.80;99.90;;;;;;5000151;28;20223;-78
2022/10/15 03:23:04;;;;;;;27.83;20.27;;;12.70;99.90;;;;;;4997757;28;20232;-78
2022/10/15 03:25:32;;;;;;;27.83;20.37;;;12.70;99.90;;;;;;5011774;28;20635;-78
2022/10/15 03:28:02;;;;;;;27.93;21.00;;;12.60;99.90;;;;;;4994715;28;20240;-78
2022/10/15 03:30:36;;;;;;;28.83;21.07;;;12.60;99.90;;;;;;4999686;28;20257;-78
2022/10/15 03:33:03;;;;;;;27.73;19.90;;;12.60;99.90;;;;;;5000032;28;20888;-79
2022/10/15 03:35:30;;;;;;;25.93;18.63;;;12.60;99.90;;;;;;5001258;28;20227;-78
2022/10/15 03:37:57;;;;;;;27.87;19.33;;;12.60;99.90;;;;;;4997582;28;20219;-77
2022/10/15 03:40:25;;;;;;;24.23;18.97;;;12.60;99.90;;;;;;5008591;28;20218;-78
2022/10/15 03:42:56;;;;;;;25.33;18.07;;;12.60;99.90;;;;;;5001887;28;20227;-77
2022/10/15 03:45:24;;;;;;;25.40;19.07;;;12.60;99.90;;;;;;5005631;28;20313;-78
2022/10/15 03:48:05;;;;;;;23.53;17.13;;;12.50;99.90;;;;;;4999618;28;20250;-78
2022/10/15 03:50:34;;;;;;;23.17;17.13;;;12.60;99.90;;;;;;5006133;28;20636;-79
2022/10/15 03:53:03;;;;;;;23.63;17.57;;;12.60;99.90;;;;;;4996508;28;20229;-78
2022/10/15 03:55:31;;;;;;;23.57;16.60;;;12.50;99.90;;;;;;4999442;28;20265;-78
2022/10/15 03:57:59;;;;;;;22.73;16.23;;;12.50;99.90;;;;;;5010163;28;20223;-78
2022/10/15 04:00:25;;;;;;;22.07;15.40;;;12.50;99.90;;;;;;4999675;28;20228;-78
2022/10/15 04:02:57;;;;;;;19.00;14.97;;;12.50;99.90;;;;;;4991973;28;20228;-78
2022/10/15 04:05:27;;;;;;;21.57;15.17;;;12.50;99.90;;;;;;5006274;28;20223;-78
2022/10/15 04:07:59;;;;;;;23.23;16.93;;;12.40;99.90;;;;;;5001845;28;20225;-80
2022/10/15 04:10:28;;;;;;;22.47;16.67;;;12.40;99.90;;;;;;5008210;28;20665;-77
2022/10/15 04:12:58;;;;;;;24.67;16.67;;;12.30;99.90;;;;;;5008618;28;20598;-78
2022/10/15 04:15:26;;;;;;;25.60;16.37;;;12.30;99.90;;;;;;5008991;28;20591;-78
2022/10/15 04:18:01;;;;;;;22.33;15.57;;;12.20;99.90;;;;;;5005683;28;20299;-78
2022/10/15 04:20:33;;;;;;;22.33;16.10;;;12.10;99.90;;;;;;5006591;28;20237;-78
2022/10/15 04:23:29;;;;;;;22.93;16.30;;;12.00;99.90;;;;;;5002536;28;20694;-78
2022/10/15 04:26:15;;;;;;;23.53;16.27;;;11.90;99.90;;;;;;5004249;28;20842;-78
2022/10/15 04:28:43;;;;;;;24.20;16.43;;;11.80;99.90;;;;;;5017303;28;20701;-78
2022/10/15 04:31:10;;;;;;;22.77;16.77;;;11.70;99.90;;;;;;5006759;28;20285;-79
2022/10/15 04:33:37;;;;;;;21.47;15.40;;;11.60;99.90;;;;;;5005711;28;20251;-79
2022/10/15 04:36:06;;;;;;;22.20;15.30;;;11.60;99.90;;;;;;5007228;28;20248;-79
2022/10/15 04:38:53;;;;;;;20.93;15.47;;;11.50;99.90;;;;;;5019157;28;20443;-79
2022/10/15 04:41:29;;;;;;;24.87;18.47;;;11.50;99.90;;;;;;5004488;28;20246;-78
2022/10/15 04:44:05;;;;;;;27.10;17.47;;;11.50;99.90;;;;;;5005967;28;20709;-78
2022/10/15 04:46:32;;;;;;;23.43;16.80;;;11.40;99.90;;;;;;5004223;28;20225;-77
2022/10/15 04:49:04;;;;;;;26.87;18.50;;;11.50;99.90;;;;;;5007243;28;20224;-78
2022/10/15 04:51:38;;;;;;;25.00;18.13;;;11.50;99.90;;;;;;5006701;28;20236;-79
2022/10/15 04:54:12;;;;;;;26.77;18.40;;;11.50;99.90;;;;;;5008959;28;20882;-80
2022/10/15 04:56:54;;;;;;;25.00;17.13;;;11.50;99.90;;;;;;5006339;28;20245;-79
2022/10/15 04:59:22;;;;;;;25.23;17.73;;;11.60;99.90;;;;;;4999098;28;20229;-79
2022/10/15 05:02:07;;;;;;;27.37;18.73;;;11.60;99.90;;;;;;5011599;28;20331;-79
2022/10/15 05:04:35;;;;;;;24.93;17.50;;;11.60;99.90;;;;;;5001560;28;20233;-82
2022/10/15 05:07:02;;;;;;;24.07;17.27;;;11.60;99.90;;;;;;5010046;28;20231;-82
2022/10/15 05:09:29;;;;;;;27.80;17.57;;;11.70;99.90;;;;;;5004391;28;20272;-82
2022/10/15 05:11:57;;;;;;;30.50;19.77;;;11.70;99.90;;;;;;5004256;28;20296;-82
2022/10/15 05:14:28;;;;;;;27.73;19.00;;;11.70;99.90;;;;;;5009444;28;20628;-82
2022/10/15 05:17:24;;;;;;;29.97;19.73;;;11.80;99.90;;;;;;5001341;28;20240;-82
2022/10/15 05:19:51;;;;;;;26.97;18.63;;;11.80;99.90;;;;;;5001367;28;20330;-82
2022/10/15 05:22:22;;;;;;;27.97;18.97;;;11.80;99.90;;;;;;5004660;28;20340;-82
2022/10/15 05:24:53;;;;;;;28.67;17.43;;;11.90;99.90;;;;;;5001114;28;20764;-83
2022/10/15 05:27:29;;;;;;;29.90;19.17;;;11.90;99.90;;;;;;5009842;28;20669;-82
2022/10/15 05:29:57;;;;;;;28.77;19.30;;;11.90;99.90;;;;;;5009444;28;20363;-83
2022/10/15 05:32:31;;;;;;;34.63;21.03;;;12.00;99.90;;;;;;5003408;28;20249;-83
2022/10/15 05:34:58;;;;;;;35.37;21.40;;;12.00;99.90;;;;;;5021128;28;20223;-83
2022/10/15 05:37:36;;;;;;;30.87;20.00;;;12.00;99.90;;;;;;5004414;28;20236;-83
2022/10/15 05:40:04;;;;;;;35.63;22.60;;;12.00;99.90;;;;;;5020958;28;20229;-83
2022/10/15 05:42:31;;;;;;;35.30;21.07;;;12.10;99.90;;;;;;5009113;28;20233;-83
2022/10/15 05:45:00;;;;;;;31.20;20.43;;;12.00;99.90;;;;;;5004002;28;20244;-83
2022/10/15 05:47:26;;;;;;;36.17;20.53;;;12.00;99.90;;;;;;5003260;28;20326;-83
2022/10/15 05:50:10;;;;;;;30.70;20.07;;;12.10;99.90;;;;;;5005149;28;20751;-83
2022/10/15 05:52:41;;;;;;;31.03;20.07;;;12.10;99.90;;;;;;5008128;28;20227;-83
2022/10/15 05:55:27;;;;;;;33.60;20.40;;;12.10;99.90;;;;;;5008892;28;20662;-83
2022/10/15 05:57:54;;;;;;;33.20;20.17;;;12.10;99.90;;;;;;5007849;28;20814;-83
2022/10/15 06:00:22;;;;;;;28.00;18.33;;;12.00;99.90;;;;;;5007942;28;20641;-82
2022/10/15 06:02:52;;;;;;;29.90;19.13;;;12.00;99.90;;;;;;5003988;28;20296;-84
2022/10/15 06:05:20;;;;;;;31.60;19.20;;;12.10;99.90;;;;;;5012099;28;20222;-84
2022/10/15 06:07:47;;;;;;;27.77;17.83;;;12.00;99.90;;;;;;5009722;28;20229;-84
2022/10/15 06:10:14;;;;;;;34.50;19.30;;;12.10;99.90;;;;;;5009316;28;20332;-83
2022/10/15 06:12:41;;;;;;;33.40;19.97;;;12.10;99.90;;;;;;5007656;28;20715;-83
2022/10/15 06:15:09;;;;;;;29.27;19.00;;;12.10;99.90;;;;;;5004783;28;20694;-83
2022/10/15 06:17:36;;;;;;;35.10;20.93;;;12.10;99.90;;;;;;5020368;28;20226;-83
2022/10/15 06:20:04;;;;;;;33.23;19.27;;;12.10;99.90;;;;;;5008229;28;20232;-84
2022/10/15 06:22:31;;;;;;;33.03;20.20;;;12.10;99.90;;;;;;5009078;28;20232;-83
2022/10/15 06:24:58;;;;;;;29.17;18.37;;;12.10;99.90;;;;;;5005391;28;20225;-82
2022/10/15 06:27:25;;;;;;;29.50;18.40;;;12.20;99.90;;;;;;4998195;28;20233;-86
2022/10/15 06:29:51;;;;;;;30.60;18.73;;;12.20;99.90;;;;;;5003882;28;20232;-85
2022/10/15 06:32:18;;;;;;;31.40;18.73;;;12.20;99.90;;;;;;5011555;28;20225;-83
2022/10/15 06:34:46;;;;;;;29.43;18.63;;;12.20;99.90;;;;;;5005528;28;20256;-83
2022/10/15 06:37:13;;;;;;;28.17;18.73;;;12.20;99.90;;;;;;5004337;28;20771;-82
2022/10/15 06:39:39;;;;;;;32.50;19.30;;;12.20;99.90;;;;;;5003645;28;20696;-85
2022/10/15 06:42:06;;;;;;;32.13;19.73;;;12.20;99.90;;;;;;5001026;28;20273;-81
2022/10/15 06:44:39;;;;;;;30.60;18.50;;;12.20;99.90;;;;;;5007235;28;20233;-84
2022/10/15 06:47:06;;;;;;;33.63;20.23;;;12.30;99.90;;;;;;5006119;28;20236;-83
2022/10/15 06:49:33;;;;;;;33.10;19.70;;;12.30;99.90;;;;;;5008947;28;20239;-82
2022/10/15 06:52:01;;;;;;;33.27;20.07;;;12.30;99.90;;;;;;5017623;28;20225;-82
2022/10/15 06:54:28;;;;;;;33.37;19.47;;;12.30;99.90;;;;;;5006540;28;20313;-82
2022/10/15 06:56:54;;;;;;;32.50;20.30;;;12.30;99.90;;;;;;5001216;28;20223;-83
2022/10/15 06:59:21;;;;;;;32.33;20.10;;;12.30;99.90;;;;;;5006092;28;20226;-83
2022/10/15 07:01:48;;;;;;;30.90;19.50;;;12.30;99.90;;;;;;5003352;28;20363;-84
2022/10/15 07:04:14;;;;;;;29.00;19.33;;;12.40;99.90;;;;;;5005011;28;20832;-85
2022/10/15 07:06:41;;;;;;;30.90;19.87;;;12.40;99.90;;;;;;5003191;28;20743;-83
2022/10/15 07:09:09;;;;;;;33.73;19.27;;;12.40;99.90;;;;;;5007295;28;20723;-82
2022/10/15 07:11:36;;;;;;;63.93;22.73;;;12.40;99.90;;;;;;5020093;28;20248;-83
2022/10/15 07:16:29;;;;;;;33.13;20.00;;;12.50;99.90;;;;;;4999959;28;20891;-81
2022/10/15 07:18:56;;;;;;;29.30;19.13;;;12.50;99.90;;;;;;5001752;28;20843;-82
2022/10/15 07:21:22;;;;;;;33.53;20.17;;;12.60;99.90;;;;;;5008042;28;20658;-79
2022/10/15 07:23:49;;;;;;;33.53;20.67;;;12.60;99.90;;;;;;5016685;28;20296;-80
2022/10/15 07:26:17;;;;;;;30.93;19.73;;;12.60;99.90;;;;;;4993395;28;20234;-79
2022/10/15 07:28:44;;;;;;;32.43;20.23;;;12.70;99.90;;;;;;5001767;28;20902;-81
2022/10/15 07:31:10;;;;;;;33.87;21.30;;;12.70;99.90;;;;;;5002589;28;20627;-81
2022/10/15 07:33:37;;;;;;;37.70;22.03;;;12.70;99.90;;;;;;4997591;28;20240;-80
2022/10/15 07:36:05;;;;;;;33.93;20.23;;;12.70;99.90;;;;;;5001869;28;20234;-80
2022/10/15 07:38:32;;;;;;;32.93;21.47;;;12.80;99.90;;;;;;5004415;28;20239;-81
2022/10/15 07:40:59;;;;;;;36.00;21.93;;;12.70;99.90;;;;;;5016996;28;20229;-80
2022/10/15 07:43:28;;;;;;;34.93;21.03;;;12.70;99.90;;;;;;5000383;28;20373;-80
2022/10/15 07:45:55;;;;;;;34.37;21.80;;;12.80;99.90;;;;;;5007119;28;20723;-80
2022/10/15 07:48:21;;;;;;;33.60;22.00;;;12.80;99.90;;;;;;5001959;28;20662;-80
2022/10/15 07:50:54;;;;;;;32.43;20.27;;;12.80;99.90;;;;;;5004424;28;20254;-82
2022/10/15 07:53:20;;;;;;;33.60;20.90;;;12.80;99.90;;;;;;5001571;28;20247;-80
2022/10/15 07:55:52;;;;;;;36.17;22.07;;;12.80;99.90;;;;;;5005229;28;20231;-81
2022/10/15 07:58:19;;;;;;;34.17;20.00;;;12.80;99.90;;;;;;5004563;28;20287;-81
2022/10/15 08:00:47;;;;;;;35.43;22.20;;;12.70;99.90;;;;;;4998366;28;21063;-82
2022/10/15 08:03:14;;;;;;;33.10;20.50;;;12.80;99.90;;;;;;4999712;28;20744;-82
2022/10/15 08:05:40;;;;;;;31.80;20.73;;;12.80;99.90;;;;;;5003612;28;20234;-82
2022/10/15 08:08:07;;;;;;;38.83;22.33;;;12.80;99.90;;;;;;5003834;28;20216;-82
2022/10/15 08:10:35;;;;;;;31.03;20.63;;;12.80;99.90;;;;;;5017838;28;20228;-81
2022/10/15 08:13:02;;;;;;;31.20;20.33;;;12.80;99.90;;;;;;5005567;28;20233;-82
2022/10/15 08:15:28;;;;;;;31.27;19.53;;;12.80;99.90;;;;;;5016380;28;20233;-82
2022/10/15 08:17:56;;;;;;;36.37;21.13;;;12.80;99.90;;;;;;5002067;28;20224;-82
2022/10/15 08:20:23;;;;;;;32.87;19.30;;;12.90;99.90;;;;;;4997183;28;20259;-82
2022/10/15 08:22:50;;;;;;;32.30;19.87;;;12.90;99.90;;;;;;5002312;28;20250;-82
2022/10/15 08:25:16;;;;;;;33.77;19.53;;;12.90;99.90;;;;;;5001881;28;20230;-82
2022/10/15 08:27:43;;;;;;;33.83;20.50;;;13.00;99.90;;;;;;5004858;28;20233;-82
2022/10/15 08:30:11;;;;;;;32.67;20.83;;;13.00;99.90;;;;;;5001730;28;20243;-82
2022/10/15 08:32:38;;;;;;;28.30;19.00;;;13.00;99.90;;;;;;5000812;28;20228;-82
2022/10/15 08:35:06;;;;;;;32.07;20.43;;;13.00;99.90;;;;;;4999390;28;20240;-82
2022/10/15 08:37:33;;;;;;;33.60;19.60;;;13.10;99.90;;;;;;5003558;28;20242;-81
2022/10/15 08:40:00;;;;;;;32.17;18.47;;;13.20;99.90;;;;;;5003818;28;20784;-83
2022/10/15 08:42:32;;;;;;;28.93;18.73;;;13.50;99.90;;;;;;5012739;28;20226;-82
2022/10/15 08:45:02;;;;;;;31.23;19.60;;;13.80;99.90;;;;;;4997823;28;20222;-81
2022/10/15 08:47:36;;;;;;;28.37;18.20;;;14.00;99.90;;;;;;4999984;28;20581;-82
2022/10/15 08:50:18;;;;;;;27.37;17.83;;;14.10;99.90;;;;;;5006350;28;20224;-82
2022/10/15 08:52:47;;;;;;;28.80;18.77;;;14.20;99.90;;;;;;5011426;28;20252;-82
2022/10/15 08:55:17;;;;;;;30.60;20.03;;;14.20;99.90;;;;;;4999253;28;20233;-82
2022/10/15 08:57:49;;;;;;;30.50;18.83;;;14.10;99.90;;;;;;4996973;28;20226;-82
2022/10/15 09:00:20;;;;;;;27.97;18.13;;;14.10;99.90;;;;;;5014506;28;21097;-82
2022/10/15 09:02:54;;;;;;;24.67;16.80;;;14.10;99.90;;;;;;5012411;28;20225;-83
2022/10/15 09:05:41;;;;;;;24.43;17.03;;;14.20;99.90;;;;;;5001971;28;20322;-82
2022/10/15 09:08:20;;;;;;;25.43;16.63;;;14.30;99.90;;;;;;5012096;28;20578;-82
2022/10/15 09:10:49;;;;;;;26.60;17.33;;;14.50;99.90;;;;;;5003186;28;20471;-82
2022/10/15 09:13:24;;;;;;;26.23;17.17;;;14.70;99.90;;;;;;5002960;28;20225;-83
2022/10/15 09:15:53;;;;;;;26.00;17.20;;;14.80;99.90;;;;;;4997169;28;20228;-83
2022/10/15 09:18:23;;;;;;;23.83;16.37;;;15.00;99.90;;;;;;5002213;28;20286;-83
2022/10/15 09:20:53;;;;;;;23.57;15.47;;;15.30;99.90;;;;;;4998318;28;20230;-83
2022/10/15 09:23:22;;;;;;;23.40;15.80;;;15.60;99.90;;;;;;5002221;28;20217;-82
2022/10/15 09:25:58;;;;;;;22.37;14.90;;;15.80;99.90;;;;;;5014660;28;21204;-81
2022/10/15 09:28:33;;;;;;;21.83;14.87;;;16.00;99.90;;;;;;5002759;28;20236;-82
2022/10/15 09:30:59;;;;;;;23.33;15.43;;;16.20;99.90;;;;;;5002327;28;20355;-81
2022/10/15 09:33:37;;;;;;;22.03;15.23;;;16.30;99.90;;;;;;5000166;28;20868;-81
2022/10/15 09:36:21;;;;;;;22.00;15.20;;;16.50;99.90;;;;;;5004480;28;20324;-81
2022/10/15 09:38:59;;;;;;;22.90;14.90;;;16.70;99.90;;;;;;4993492;28;20230;-82
2022/10/15 09:41:36;;;;;;;22.03;15.63;;;17.00;99.90;;;;;;5003568;28;20230;-82
2022/10/15 09:44:09;;;;;;;19.87;13.50;;;17.20;99.90;;;;;;5002965;28;20287;-82
2022/10/15 09:46:43;;;;;;;21.87;14.93;;;17.40;99.90;;;;;;5002050;28;20229;-82
2022/10/15 09:49:17;;;;;;;22.00;15.30;;;17.60;99.90;;;;;;5003428;28;20264;-82
2022/10/15 09:52:01;;;;;;;22.63;15.40;;;17.90;99.90;;;;;;5003525;28;20218;-82
2022/10/15 09:54:36;;;;;;;20.43;14.00;;;18.20;99.90;;;;;;4998646;28;20247;-82
2022/10/15 09:57:02;;;;;;;18.67;12.73;;;18.50;99.90;;;;;;4997099;28;20308;-81
2022/10/15 09:59:30;;;;;;;21.37;13.93;;;18.80;99.90;;;;;;5004502;28;20228;-82
2022/10/15 10:01:59;;;;;;;16.83;12.47;;;19.00;99.90;;;;;;4993622;28;20249;-81
2022/10/15 10:04:28;;;;;;;18.23;12.90;;;19.20;99.90;;;;;;5000437;28;20228;-82
2022/10/15 10:07:00;;;;;;;18.47;12.77;;;19.30;99.90;;;;;;5003774;28;20229;-81
2022/10/15 10:09:31;;;;;;;18.63;13.60;;;19.50;99.90;;;;;;4999192;28;20226;-82
2022/10/15 10:12:01;;;;;;;18.67;13.60;;;19.50;99.30;;;;;;5004651;28;20224;-82
2022/10/15 10:14:31;;;;;;;19.17;12.90;;;19.40;99.90;;;;;;5000846;28;20713;-82
2022/10/15 10:17:16;;;;;;;17.10;13.17;;;19.50;99.90;;;;;;5001713;28;20218;-81
2022/10/15 10:19:43;;;;;;;18.17;11.87;;;19.40;99.50;;;;;;4999587;28;20224;-81
2022/10/15 10:22:16;;;;;;;17.27;11.57;;;19.30;99.90;;;;;;5004406;28;20224;-81
2022/10/15 10:24:44;;;;;;;17.53;11.77;;;19.10;99.90;;;;;;5001315;28;20236;-82
2022/10/15 10:27:20;;;;;;;15.20;10.50;;;19.10;99.90;;;;;;5000507;28;20249;-82
2022/10/15 10:29:55;;;;;;;15.40;10.87;;;19.10;99.90;;;;;;5000467;28;20217;-83
2022/10/15 10:32:26;;;;;;;16.87;12.10;;;19.20;99.90;;;;;;5000732;28;20221;-82
2022/10/15 10:34:53;;;;;;;15.93;11.80;;;19.30;99.90;;;;;;4997491;28;20236;-82
2022/10/15 10:37:23;;;;;;;16.13;12.43;;;19.50;99.90;;;;;;4998661;28;20224;-82
2022/10/15 10:39:53;;;;;;;15.87;11.77;;;19.50;99.90;;;;;;4996540;28;20264;-82
2022/10/15 10:42:37;;;;;;;15.03;10.93;;;19.60;99.90;;;;;;5001545;28;20799;-82
2022/10/15 10:45:22;;;;;;;14.07;10.90;;;19.70;99.40;;;;;;5000675;28;20225;-82
2022/10/15 10:47:49;;;;;;;14.87;11.60;;;19.70;98.50;;;;;;4998910;28;20229;-81
2022/10/15 10:50:32;;;;;;;17.27;12.25;;;19.60;98.60;;;;;;5002614;28;20686;-81
2022/10/15 10:53:19;;;;;;;12.53;10.17;;;19.50;98.70;;;;;;4996632;28;20697;-82
2022/10/15 10:55:45;;;;;;;12.90;9.40;;;19.50;99.50;;;;;;5003814;28;20244;-83
2022/10/15 10:58:18;;;;;;;12.60;9.82;;;19.60;99.80;;;;;;4997852;28;20975;-82
2022/10/15 11:00:47;;;;;;;12.07;8.20;;;19.60;99.80;;;;;;5000421;28;20228;-82
2022/10/15 11:03:28;;;;;;;10.20;7.00;;;19.70;99.80;;;;;;4997999;28;20243;-82
2022/10/15 11:06:09;;;;;;;10.13;6.40;;;19.70;98.70;;;;;;5001879;28;20716;-82
2022/10/15 11:08:45;;;;;;;9.63;5.93;;;19.80;98.60;;;;;;5000751;28;20743;-82
2022/10/15 11:11:21;;;;;;;10.00;6.47;;;19.90;99.30;;;;;;5001959;28;20224;-81
2022/10/15 11:13:59;;;;;;;9.63;5.90;;;20.00;99.30;;;;;;5002155;28;20225;-82
2022/10/15 11:16:36;;;;;;;8.67;5.57;;;20.00;99.40;;;;;;5004238;28;21778;-82
2022/10/15 11:19:20;;;;;;;9.40;5.73;;;20.00;98.70;;;;;;4999910;28;20221;-81
2022/10/15 11:22:00;;;;;;;6.67;4.83;;;20.00;98.00;;;;;;5004325;28;20239;-82
2022/10/15 11:24:34;;;;;;;7.53;4.43;;;19.90;98.10;;;;;;5005573;28;20744;-82
2022/10/15 11:27:14;;;;;;;8.17;5.20;;;19.90;98.70;;;;;;5006844;28;20217;-83
2022/10/15 11:29:51;;;;;;;7.57;4.43;;;19.80;98.10;;;;;;5004029;28;20227;-82
2022/10/15 11:32:33;;;;;;;7.20;4.90;;;19.90;98.50;;;;;;5001712;28;20221;-80
2022/10/15 11:35:14;;;;;;;8.75;4.57;;;20.00;98.80;;;;;;5009970;28;20233;-82
2022/10/15 11:37:51;;;;;;;5.43;3.80;;;20.10;97.60;;;;;;5007994;28;20229;-82
2022/10/15 11:40:33;;;;;;;7.10;3.90;;;20.30;98.20;;;;;;5007583;28;20235;-82
2022/10/15 11:43:03;;;;;;;7.00;3.95;;;20.40;98.30;;;;;;5003496;28;20221;-81
2022/10/15 11:45:49;;;;;;;7.53;3.42;;;20.50;98.10;;;;;;5005196;28;20307;-82
2022/10/15 11:48:25;;;;;;;5.18;3.00;;;20.60;96.30;;;;;;5023774;28;20224;-82
2022/10/15 11:50:57;;;;;;;4.40;3.50;;;20.70;96.90;;;;;;5007524;28;20240;-83
2022/10/15 11:53:39;;;;;;;6.20;3.70;;;20.70;96.60;;;;;;4997566;28;20869;-82
2022/10/15 11:56:13;;;;;;;4.13;2.60;;;20.70;96.80;;;;;;5014106;28;20236;-78
2022/10/15 11:58:45;;;;;;;5.10;3.15;;;20.70;96.80;;;;;;5001621;28;20225;-79
2022/10/15 12:01:19;;;;;;;4.85;2.67;;;20.60;95.30;;;;;;5004741;28;20221;-79
2022/10/15 12:03:53;;;;;;;6.38;2.67;;;20.40;96.00;;;;;;5006562;28;20247;-78
2022/10/15 12:06:22;;;;;;;4.50;3.30;;;20.30;95.80;;;;;;5002990;28;20225;-79
2022/10/15 12:08:50;;;;;;;7.82;3.20;;;20.10;95.80;;;;;;5004653;28;20229;-79
2022/10/15 12:11:30;;;;;;;8.77;3.30;;;19.80;96.30;;;;;;5001057;28;20292;-79
2022/10/15 12:14:02;;;;;;;5.45;3.53;;;19.70;96.50;;;;;;5004082;28;20255;-77
2022/10/15 12:16:37;;;;;;;5.93;3.40;;;19.50;96.80;;;;;;5002838;28;20228;-77
2022/10/15 12:19:14;;;;;;;6.40;3.80;;;19.30;97.00;;;;;;4999452;28;20746;-79
2022/10/15 12:21:44;;;;;;;5.47;3.73;;;19.10;97.30;;;;;;5003010;28;20232;-78
2022/10/15 12:24:52;;;;;;;7.20;4.03;;;18.90;97.40;;;;;;4999058;28;21066;-78
2022/10/15 12:27:25;;;;;;;6.57;3.53;;;18.60;97.20;;;;;;4985823;28;20245;-78
2022/10/15 12:30:10;;;;;;;6.00;3.20;;;18.60;98.40;;;;;;5003556;28;20721;-77
2022/10/15 12:32:39;;;;;;;4.27;3.30;;;18.60;98.40;;;;;;5004078;28;20654;-79
2022/10/15 12:35:17;;;;;;;5.63;3.33;;;18.50;98.00;;;;;;5004523;28;20598;-78
2022/10/15 12:37:47;;;;;;;5.70;2.83;;;18.50;98.30;;;;;;5005347;28;20416;-79
2022/10/15 12:40:27;;;;;;;3.90;3.00;;;18.60;98.20;;;;;;5001463;28;20248;-79
2022/10/15 12:42:58;;;;;;;6.53;2.90;;;18.60;98.20;;;;;;5000447;28;20241;-78
2022/10/15 12:45:34;;;;;;;4.53;3.20;;;18.70;98.20;;;;;;5017817;28;20228;-79
2022/10/15 12:48:33;;;;;;;5.37;3.20;;;18.70;97.60;;;;;;4997681;28;20224;-79
2022/10/15 12:51:41;;;;;;;4.57;2.87;;;18.80;97.60;;;;;;4999042;28;20305;-78
2022/10/15 12:54:34;;;;;;;5.90;2.80;;;18.80;97.00;;;;;;4996833;28;20240;-78
2022/10/15 12:57:03;;;;;;;5.27;3.00;;;18.70;96.50;;;;;;5000521;28;20230;-78